createdAt,value
2019-03-20T00:02:30.540Z,4.60
2019-03-20T00:05:08.647Z,4.60
2019-03-20T00:07:39.033Z,4.56
2019-03-20T00:10:15.170Z,4.50
2019-03-20T00:12:53.169Z,4.50
2019-03-20T00:15:26.756Z,4.53
2019-03-20T00:17:57.504Z,4.53
2019-03-20T00:20:31.261Z,4.58
2019-03-20T00:23:08.420Z,4.61
2019-03-20T00:25:41.707Z,4.60
2019-03-20T00:28:12.583Z,4.60
2019-03-20T00:30:44.700Z,4.61
2019-03-20T00:33:20.474Z,4.61
2019-03-20T00:36:01.115Z,4.59
2019-03-20T00:38:35.359Z,4.50
2019-03-20T00:41:07.030Z,4.51
2019-03-20T00:43:47.774Z,4.48
2019-03-20T00:46:26.451Z,4.48
2019-03-20T00:48:59.286Z,4.58
2019-03-20T00:51:30.114Z,4.60
2019-03-20T00:54:05.957Z,4.59
2019-03-20T00:56:39.551Z,4.58
2019-03-20T01:03:34.522Z,4.68
2019-03-20T01:06:46.509Z,4.79
2019-03-20T01:09:24.020Z,4.84
2019-03-20T01:12:11.092Z,4.84
2019-03-20T01:14:42.755Z,4.80
2019-03-20T01:17:16.366Z,4.87
2019-03-20T01:19:57.353Z,4.91
2019-03-20T01:22:38.418Z,4.88
2019-03-20T01:25:22.407Z,4.93
2019-03-20T01:27:55.771Z,5.01
2019-03-20T01:30:36.805Z,5.01
2019-03-20T01:33:13.988Z,4.90
2019-03-20T01:35:50.003Z,5.11
2019-03-20T01:38:22.566Z,5.11
2019-03-20T01:41:07.620Z,5.09
2019-03-20T01:43:42.893Z,5.13
2019-03-20T01:46:15.494Z,5.21
2019-03-20T01:48:47.570Z,5.24
2019-03-20T01:51:22.545Z,5.30
2019-03-20T01:54:00.106Z,5.39
2019-03-20T01:56:32.772Z,5.36
2019-03-20T01:59:06.674Z,5.34
2019-03-20T02:01:39.696Z,5.44
2019-03-20T02:04:15.413Z,5.44
2019-03-20T02:07:02.319Z,5.42
2019-03-20T02:09:39.648Z,5.37
2019-03-20T02:12:15.321Z,5.39
2019-03-20T02:14:48.561Z,5.43
2019-03-20T02:17:21.854Z,5.46
2019-03-20T02:19:56.116Z,5.43
2019-03-20T02:22:29.631Z,5.46
2019-03-20T02:25:01.902Z,5.48
2019-03-20T02:27:37.683Z,5.47
2019-03-20T02:30:26.763Z,5.47
2019-03-20T02:33:01.744Z,5.42
2019-03-20T02:35:52.357Z,5.44
2019-03-20T02:38:27.123Z,5.44
2019-03-20T02:41:05.851Z,5.46
2019-03-20T02:43:38.941Z,5.46
2019-03-20T02:46:15.594Z,5.48
2019-03-20T02:48:53.301Z,5.48
2019-03-20T02:51:37.258Z,5.50
2019-03-20T02:54:28.167Z,5.56
2019-03-20T02:57:11.863Z,5.60
2019-03-20T02:59:44.288Z,5.59
2019-03-20T03:02:18.911Z,5.59
2019-03-20T03:04:53.344Z,5.77
2019-03-20T03:07:27.560Z,5.78
2019-03-20T03:09:59.265Z,5.78
2019-03-20T03:12:32.102Z,5.92
2019-03-20T03:15:04.483Z,5.92
2019-03-20T03:17:35.687Z,5.98
2019-03-20T03:20:12.669Z,5.96
2019-03-20T03:22:43.021Z,6.01
2019-03-20T03:25:16.083Z,5.97
2019-03-20T03:27:49.264Z,6.03
2019-03-20T03:30:21.778Z,6.04
2019-03-20T03:32:52.897Z,6.01
2019-03-20T03:35:25.000Z,6.05
2019-03-20T03:37:57.248Z,6.01
2019-03-20T03:40:28.378Z,6.01
2019-03-20T03:42:59.551Z,6.01
2019-03-20T03:45:32.280Z,6.03
2019-03-20T03:48:06.141Z,6.03
2019-03-20T03:50:39.583Z,6.03
2019-03-20T03:53:15.557Z,6.05
2019-03-20T03:55:49.822Z,6.08
2019-03-20T03:58:21.177Z,6.06
2019-03-20T04:00:53.531Z,6.06
2019-03-20T04:03:41.533Z,6.00
2019-03-20T04:06:17.104Z,5.98
2019-03-20T04:08:50.935Z,5.92
2019-03-20T04:11:22.737Z,5.92
2019-03-20T04:13:53.481Z,5.90
2019-03-20T04:16:38.380Z,5.91
2019-03-20T04:19:15.207Z,5.97
2019-03-20T04:21:48.162Z,6.01
2019-03-20T04:24:21.945Z,6.01
2019-03-20T04:26:54.243Z,6.01
2019-03-20T04:29:26.925Z,5.97
2019-03-20T04:32:03.271Z,6.00
2019-03-20T04:34:41.386Z,5.94
2019-03-20T04:37:22.964Z,5.94
2019-03-20T04:39:53.557Z,5.94
2019-03-20T04:42:27.866Z,5.96
2019-03-20T04:45:04.906Z,5.96
2019-03-20T04:47:41.313Z,5.94
2019-03-20T04:50:20.436Z,5.90
2019-03-20T04:52:54.418Z,5.89
2019-03-20T04:55:26.386Z,5.86
2019-03-20T04:57:58.437Z,5.86
2019-03-20T05:00:29.966Z,5.83
2019-03-20T05:03:06.486Z,5.81
2019-03-20T05:05:38.863Z,5.82
2019-03-20T05:08:09.158Z,5.79
2019-03-20T05:10:42.911Z,5.83
2019-03-20T05:13:16.160Z,5.78
2019-03-20T05:15:47.955Z,5.69
2019-03-20T05:18:22.112Z,5.67
2019-03-20T05:20:58.283Z,5.67
2019-03-20T05:23:31.396Z,5.68
2019-03-20T05:26:04.506Z,5.68
2019-03-20T05:28:34.546Z,5.74
2019-03-20T05:31:04.542Z,5.74
2019-03-20T05:33:34.710Z,5.77
2019-03-20T05:36:08.087Z,5.77
2019-03-20T05:38:40.404Z,5.78
2019-03-20T05:41:11.116Z,5.88
2019-03-20T05:43:44.451Z,5.88
2019-03-20T05:46:14.627Z,5.99
2019-03-20T05:48:44.750Z,6.12
2019-03-20T05:51:16.537Z,6.10
2019-03-20T05:54:00.921Z,6.21
2019-03-20T05:56:36.160Z,6.26
2019-03-20T05:59:06.144Z,6.58
2019-03-20T06:01:36.326Z,6.91
2019-03-20T06:04:06.792Z,7.34
2019-03-20T06:06:38.092Z,7.69
2019-03-20T06:09:12.187Z,8.11
2019-03-20T06:11:43.183Z,8.54
2019-03-20T06:14:20.509Z,8.58
2019-03-20T06:17:11.006Z,8.80
2019-03-20T06:19:53.853Z,8.85
2019-03-20T06:22:40.771Z,9.03
2019-03-20T06:25:27.728Z,9.33
2019-03-20T06:28:16.874Z,9.60
2019-03-20T06:31:10.061Z,10.13
2019-03-20T06:33:43.563Z,10.30
2019-03-20T06:36:20.749Z,10.09
2019-03-20T06:39:04.827Z,9.76
2019-03-20T06:41:34.333Z,9.48
2019-03-20T06:44:06.550Z,9.31
2019-03-20T06:46:43.213Z,9.16
2019-03-20T06:49:14.183Z,9.16
2019-03-20T06:51:46.306Z,9.09
2019-03-20T06:54:19.286Z,8.94
2019-03-20T06:56:50.806Z,8.71
2019-03-20T06:59:29.992Z,8.77
2019-03-20T07:02:16.543Z,8.69
2019-03-20T07:05:12.063Z,8.78
2019-03-20T07:07:45.780Z,8.71
2019-03-20T07:10:48.535Z,8.66
2019-03-20T07:13:22.095Z,8.99
2019-03-20T07:15:54.451Z,8.87
2019-03-20T07:18:25.736Z,9.39
2019-03-20T07:20:57.263Z,9.56
2019-03-20T07:23:31.267Z,9.98
2019-03-20T07:26:08.440Z,9.55
2019-03-20T07:28:41.589Z,9.29
2019-03-20T07:31:15.520Z,9.54
2019-03-20T07:33:45.444Z,10.22
2019-03-20T07:36:15.790Z,10.85
2019-03-20T07:38:45.740Z,10.80
2019-03-20T07:41:16.526Z,10.13
2019-03-20T07:43:47.848Z,10.69
2019-03-20T07:46:18.617Z,10.78
2019-03-20T07:48:50.057Z,10.64
2019-03-20T07:51:21.322Z,10.80
2019-03-20T07:53:52.107Z,10.58
2019-03-20T07:56:27.243Z,11.30
2019-03-20T07:59:00.051Z,11.25
2019-03-20T08:01:33.559Z,11.67
2019-03-20T08:04:04.760Z,10.61
2019-03-20T08:06:35.311Z,11.12
2019-03-20T08:09:11.005Z,11.49
2019-03-20T08:11:41.773Z,11.72
2019-03-20T08:14:12.165Z,13.20
2019-03-20T08:16:42.317Z,11.51
2019-03-20T08:19:14.349Z,11.84
2019-03-20T08:21:45.964Z,12.42
2019-03-20T08:24:15.900Z,12.21
2019-03-20T08:26:47.165Z,11.96
2019-03-20T08:29:17.456Z,11.35
2019-03-20T08:31:49.019Z,11.30
2019-03-20T08:34:19.222Z,11.31
2019-03-20T08:36:49.479Z,12.08
2019-03-20T08:39:20.952Z,11.49
2019-03-20T08:41:52.089Z,11.68
2019-03-20T08:44:22.755Z,11.20
2019-03-20T08:46:53.109Z,12.34
2019-03-20T08:49:23.082Z,11.86
2019-03-20T08:51:54.337Z,11.47
2019-03-20T08:54:24.462Z,11.25
2019-03-20T08:56:54.843Z,11.63
2019-03-20T08:59:25.264Z,11.92
2019-03-20T09:01:56.678Z,12.25
2019-03-20T09:04:26.782Z,12.03
2019-03-20T09:06:57.898Z,12.32
2019-03-20T09:09:29.127Z,14.12
2019-03-20T09:11:59.942Z,14.16
2019-03-20T09:14:31.579Z,14.35
2019-03-20T09:17:01.964Z,15.23
2019-03-20T09:19:32.716Z,16.10
2019-03-20T09:22:04.507Z,15.42
2019-03-20T09:24:34.956Z,14.76
2019-03-20T09:27:11.332Z,15.02
2019-03-20T09:29:42.409Z,13.88
2019-03-20T09:32:15.023Z,11.99
2019-03-20T09:34:58.237Z,12.74
2019-03-20T09:37:31.000Z,12.95
2019-03-20T09:40:00.915Z,12.21
2019-03-20T09:56:33.131Z,12.51
2019-03-20T09:59:03.245Z,11.67
2019-03-20T10:01:33.491Z,11.78
2019-03-20T10:04:03.841Z,11.94
2019-03-20T10:06:38.223Z,12.68
2019-03-20T10:09:11.716Z,13.74
2019-03-20T10:11:42.005Z,12.25
2019-03-20T10:14:13.135Z,11.86
2019-03-20T10:16:45.867Z,12.27
2019-03-20T10:19:16.185Z,12.94
2019-03-20T10:21:46.465Z,13.02
2019-03-20T10:24:18.099Z,13.12
2019-03-20T10:26:49.237Z,13.58
2019-03-20T10:29:19.491Z,12.71
2019-03-20T10:31:49.877Z,12.27
2019-03-20T10:34:20.808Z,12.17
2019-03-20T10:36:52.350Z,12.05
2019-03-20T10:39:22.716Z,12.08
2019-03-20T10:41:53.092Z,12.09
2019-03-20T10:44:23.974Z,11.92
2019-03-20T10:46:56.763Z,11.90
2019-03-20T10:49:29.061Z,12.16
2019-03-20T10:51:59.337Z,12.11
2019-03-20T10:54:30.685Z,12.59
2019-03-20T10:57:22.901Z,12.49
2019-03-20T10:59:55.311Z,12.10
2019-03-20T11:02:29.004Z,12.33
2019-03-20T11:05:04.065Z,12.22
2019-03-20T11:07:36.832Z,12.88
2019-03-20T11:10:10.449Z,12.23
2019-03-20T11:12:40.879Z,12.56
2019-03-20T11:15:14.355Z,12.37
2019-03-20T11:17:46.190Z,12.42
2019-03-20T11:20:21.953Z,12.53
2019-03-20T11:22:55.268Z,12.64
2019-03-20T11:25:32.099Z,12.46
2019-03-20T11:28:02.886Z,12.47
2019-03-20T11:30:34.421Z,12.49
2019-03-20T11:33:06.034Z,13.21
2019-03-20T11:35:45.071Z,13.36
2019-03-20T11:38:12.190Z,12.91
2019-03-20T11:40:44.574Z,13.27
2019-03-20T11:43:14.964Z,13.21
2019-03-20T11:45:46.467Z,12.91
2019-03-20T11:48:25.071Z,12.92
2019-03-20T11:50:54.382Z,12.35
2019-03-20T11:53:27.389Z,12.23
2019-03-20T11:55:58.141Z,12.52
2019-03-20T11:58:28.595Z,12.63
2019-03-20T12:01:04.202Z,12.79
2019-03-20T12:03:35.814Z,13.46
2019-03-20T12:06:07.216Z,12.83
2019-03-20T12:08:39.850Z,13.10
2019-03-20T12:11:11.342Z,12.93
2019-03-20T12:13:45.189Z,12.53
2019-03-20T12:16:17.131Z,12.78
2019-03-20T12:18:56.304Z,12.47
2019-03-20T12:21:59.374Z,13.30
2019-03-20T12:24:58.026Z,12.69
2019-03-20T12:27:52.185Z,12.49
2019-03-20T12:30:25.952Z,12.84
2019-03-20T12:33:17.200Z,13.09
2019-03-20T12:36:21.880Z,12.90
2019-03-20T12:46:24.498Z,13.49
2019-03-20T12:49:36.668Z,13.44
2019-03-20T12:56:09.417Z,12.57
2019-03-20T13:05:15.871Z,12.96
2019-03-20T13:08:50.305Z,12.83
2019-03-20T13:11:56.593Z,12.98
2019-03-20T13:15:17.732Z,12.18
2019-03-20T13:35:21.325Z,12.63
2019-03-20T13:38:33.008Z,11.90
2019-03-20T13:41:45.998Z,11.94
2019-03-20T13:44:19.287Z,11.65
2019-03-20T13:46:52.331Z,11.61
2019-03-20T13:49:24.100Z,11.60
2019-03-20T13:51:54.744Z,11.50
2019-03-20T13:54:26.079Z,11.76
2019-03-20T13:57:00.212Z,11.93
2019-03-20T13:59:33.878Z,11.67
2019-03-20T14:02:05.442Z,11.80
2019-03-20T14:04:36.533Z,12.04
2019-03-20T14:07:08.661Z,11.55
2019-03-20T14:09:40.887Z,11.61
2019-03-20T14:12:12.550Z,11.71
2019-03-20T14:14:47.947Z,11.57
2019-03-20T14:17:18.772Z,11.69
2019-03-20T14:19:51.715Z,11.40
2019-03-20T14:22:22.910Z,11.10
2019-03-20T14:24:53.577Z,11.20
2019-03-20T14:27:24.739Z,11.03
2019-03-20T14:30:01.657Z,10.99
2019-03-20T14:32:34.282Z,11.06
2019-03-20T14:35:07.842Z,10.99
2019-03-20T14:37:38.818Z,10.91
2019-03-20T14:40:13.132Z,10.95
2019-03-20T14:42:43.960Z,11.10
2019-03-20T14:45:15.714Z,10.92
2019-03-20T14:47:47.385Z,10.91
2019-03-20T14:50:26.326Z,10.87
2019-03-20T14:52:57.114Z,10.82
2019-03-20T14:55:29.373Z,10.66
2019-03-20T14:58:00.875Z,10.88
2019-03-20T15:00:36.320Z,10.81
2019-03-20T15:03:06.316Z,10.93
2019-03-20T15:05:36.815Z,10.79
2019-03-20T15:08:07.557Z,10.71
2019-03-20T15:10:45.948Z,10.68
2019-03-20T15:13:11.403Z,10.67
2019-03-20T15:15:47.802Z,10.71
2019-03-20T15:18:21.243Z,10.73
2019-03-20T15:20:52.185Z,10.60
2019-03-20T15:23:27.978Z,10.55
2019-03-20T15:26:08.409Z,10.56
2019-03-20T15:28:38.774Z,10.67
2019-03-20T15:31:11.124Z,10.61
2019-03-20T15:33:43.350Z,10.55
2019-03-20T15:36:13.682Z,10.52
2019-03-20T15:38:45.324Z,10.43
2019-03-20T15:41:17.667Z,10.44
2019-03-20T15:43:49.062Z,10.35
2019-03-20T15:46:19.519Z,10.39
2019-03-20T15:48:50.198Z,10.39
2019-03-20T15:51:22.509Z,10.39
2019-03-20T15:53:53.763Z,10.39
2019-03-20T15:56:26.118Z,10.36
2019-03-20T15:58:58.284Z,10.34
2019-03-20T16:01:31.286Z,10.30
2019-03-20T16:04:01.820Z,10.32
2019-03-20T16:06:35.327Z,10.31
2019-03-20T16:09:09.833Z,10.29
2019-03-20T16:11:42.199Z,10.26
2019-03-20T16:14:14.568Z,10.26
2019-03-20T16:16:46.721Z,10.24
2019-03-20T16:19:17.779Z,10.18
2019-03-20T16:21:51.175Z,10.10
2019-03-20T16:24:21.718Z,10.12
2019-03-20T16:26:55.450Z,10.05
2019-03-20T16:29:27.251Z,9.97
2019-03-20T16:31:57.617Z,9.93
2019-03-20T16:34:30.792Z,9.90
2019-03-20T16:37:01.686Z,9.84
2019-03-20T16:39:34.943Z,9.82
2019-03-20T16:42:14.632Z,9.73
2019-03-20T16:44:44.938Z,9.64
2019-03-20T16:47:18.545Z,9.64
2019-03-20T16:49:48.992Z,9.60
2019-03-20T16:52:19.222Z,9.51
2019-03-20T16:54:49.952Z,9.50
2019-03-20T16:57:23.228Z,9.45
2019-03-20T16:59:54.377Z,9.37
2019-03-20T17:02:27.312Z,9.29
2019-03-20T17:04:57.616Z,9.29
2019-03-20T17:07:27.767Z,9.21
2019-03-20T17:10:00.315Z,9.09
2019-03-20T17:12:30.484Z,8.97
2019-03-20T17:15:00.896Z,9.07
2019-03-20T17:17:32.971Z,8.92
2019-03-20T17:20:03.561Z,8.88
2019-03-20T17:23:04.161Z,8.70
2019-03-20T17:29:31.536Z,8.54
2019-03-20T17:32:24.903Z,8.48
2019-03-20T17:35:48.577Z,8.45
2019-03-20T17:42:29.095Z,8.15
2019-03-20T17:48:36.484Z,8.01
2019-03-20T17:51:37.830Z,8.00
2019-03-20T17:57:39.956Z,7.75
2019-03-20T18:00:32.040Z,7.75
2019-03-20T18:03:39.759Z,7.70
2019-03-20T18:06:22.371Z,7.57
2019-03-20T18:09:04.243Z,7.46
2019-03-20T18:11:47.949Z,7.41
2019-03-20T18:14:59.500Z,7.27
2019-03-20T18:17:38.182Z,7.16
2019-03-20T18:20:19.785Z,7.04
2019-03-20T18:22:51.844Z,7.14
2019-03-20T18:25:24.195Z,7.07
2019-03-20T18:27:55.770Z,6.90
2019-03-20T18:30:29.591Z,6.92
2019-03-20T18:33:02.450Z,6.92
2019-03-20T18:35:35.561Z,6.86
2019-03-20T18:38:08.619Z,6.97
2019-03-20T18:40:43.442Z,6.88
2019-03-20T18:43:15.523Z,6.87
2019-03-20T18:45:47.194Z,6.85
2019-03-20T18:48:18.599Z,6.87
2019-03-20T18:51:10.565Z,6.88
2019-03-20T18:53:47.742Z,6.80
2019-03-20T18:56:29.750Z,6.81
2019-03-20T18:59:09.932Z,6.79
2019-03-20T19:01:44.086Z,6.84
2019-03-20T19:04:28.316Z,6.93
2019-03-20T19:07:09.507Z,6.90
2019-03-20T19:09:44.028Z,6.86
2019-03-20T19:12:28.352Z,6.72
2019-03-20T19:15:11.522Z,6.77
2019-03-20T19:17:52.670Z,6.71
2019-03-20T19:20:26.074Z,6.62
2019-03-20T19:23:14.041Z,6.39
2019-03-20T19:25:49.372Z,6.32
2019-03-20T19:28:48.497Z,6.32
2019-03-20T19:35:29.072Z,6.32
2019-03-20T19:38:34.787Z,6.39
2019-03-20T19:41:41.775Z,6.53
2019-03-20T19:45:07.436Z,6.40
2019-03-20T19:48:24.647Z,6.31
2019-03-20T19:51:14.167Z,6.26
2019-03-20T19:54:01.527Z,6.26
2019-03-20T19:56:35.905Z,6.19
2019-03-20T19:59:23.488Z,6.21
2019-03-20T20:02:04.730Z,6.08
2019-03-20T20:04:35.954Z,6.09
2019-03-20T20:07:18.869Z,6.07
2019-03-20T20:09:54.003Z,6.07
2019-03-20T20:12:38.868Z,6.05
2019-03-20T20:15:20.246Z,6.02
2019-03-20T20:18:04.309Z,6.02
2019-03-20T20:20:42.119Z,6.10
2019-03-20T20:23:25.626Z,5.98
2019-03-20T20:26:07.502Z,6.04
2019-03-20T20:28:38.315Z,5.99
2019-03-20T20:31:25.969Z,6.03
2019-03-20T20:34:02.632Z,6.01
2019-03-20T20:36:45.183Z,6.01
2019-03-20T20:39:22.826Z,6.00
2019-03-20T20:42:02.976Z,6.01
2019-03-20T20:44:41.237Z,6.07
2019-03-20T20:47:14.072Z,5.99
2019-03-20T20:49:44.887Z,6.04
2019-03-20T20:52:19.686Z,5.98
2019-03-20T20:54:48.915Z,5.88
2019-03-20T20:57:20.836Z,5.88
2019-03-20T20:59:55.841Z,6.00
2019-03-20T21:02:30.365Z,5.94
2019-03-20T21:05:02.438Z,5.97
2019-03-20T21:07:33.109Z,5.94
2019-03-20T21:10:05.990Z,5.87
2019-03-20T21:12:38.215Z,5.87
2019-03-20T21:15:31.535Z,5.81
2019-03-20T21:18:34.471Z,5.71
2019-03-20T21:21:05.175Z,5.71
2019-03-20T21:24:12.203Z,5.68
2019-03-20T21:27:09.461Z,5.80
2019-03-20T21:29:53.710Z,5.87
2019-03-20T21:32:31.165Z,5.83
2019-03-20T21:35:20.606Z,5.79
2019-03-20T21:38:04.247Z,5.79
2019-03-20T21:40:37.441Z,5.80
2019-03-20T21:43:35.132Z,5.70
2019-03-20T21:46:42.526Z,5.70
2019-03-20T21:49:13.716Z,5.64
2019-03-20T21:51:45.569Z,5.64
2019-03-20T21:54:53.344Z,5.66
2019-03-20T21:57:41.395Z,5.70
2019-03-20T22:00:38.744Z,5.61
2019-03-20T22:03:12.374Z,5.61
2019-03-20T22:05:57.286Z,5.58
2019-03-20T22:08:29.888Z,5.53
2019-03-20T22:11:23.112Z,5.46
2019-03-20T22:14:03.223Z,5.42
2019-03-20T22:16:59.954Z,5.42
2019-03-20T22:19:53.952Z,5.41
2019-03-20T22:22:39.337Z,5.30
2019-03-20T22:42:20.678Z,5.20
2019-03-20T23:15:06.538Z,5.14
2019-03-20T23:18:08.576Z,5.14
2019-03-20T23:21:10.740Z,5.24
2019-03-20T23:24:21.984Z,5.26
